MQC43L HAAB-HKMO
Flight info
| Callsign | MQC43L |
|---|---|
| Flight time | 1h 54m |
| Altitude | 33000 |
| Route | IMKIT3A IMKIT UT129 ALEMU/N0468F320 UN301 IBNOK IBNOK3A |
| Aircraft | B738/M-SDE2E3FGHIRWXY/LB1 |
Departure
| Time | 2026-04-21 07:00 |
|---|---|
| Airport | Addis Ababa Bole International Airport (HAAB) |
Arrival
| Time | 2026-04-21 08:54 |
|---|---|
| Airport | Moi International Airport (HKMO) |
| Time | Latitude | Longitude | Altitude | Speed | Heading |
|---|---|---|---|---|---|
| 2026-04-21 06:37 | 8.98325 | 38.80712 | 7611 ft | 0 kts | 352° |
| 2026-04-21 06:53 | 8.98330 | 38.80697 | 7611 ft | 6 kts | 261° |
| 2026-04-21 06:53 | 8.98285 | 38.80699 | 7611 ft | 10 kts | 160° |
| 2026-04-21 06:53 | 8.98197 | 38.80686 | 7612 ft | 16 kts | 206° |
| 2026-04-21 06:53 | 8.98103 | 38.80628 | 7613 ft | 16 kts | 231° |
| 2026-04-21 06:54 | 8.98076 | 38.80561 | 7613 ft | 15 kts | 254° |
| 2026-04-21 06:54 | 8.98047 | 38.80459 | 7614 ft | 15 kts | 251° |
| 2026-04-21 06:54 | 8.98016 | 38.80362 | 7616 ft | 15 kts | 252° |
| 2026-04-21 06:54 | 8.97980 | 38.80251 | 7617 ft | 18 kts | 252° |
| 2026-04-21 06:55 | 8.97939 | 38.80113 | 7617 ft | 23 kts | 254° |
| 2026-04-21 06:55 | 8.97893 | 38.79947 | 7617 ft | 26 kts | 254° |
| 2026-04-21 06:55 | 8.97845 | 38.79775 | 7617 ft | 25 kts | 254° |
| 2026-04-21 06:55 | 8.97801 | 38.79614 | 7616 ft | 23 kts | 254° |
| 2026-04-21 06:56 | 8.97757 | 38.79461 | 7616 ft | 22 kts | 253° |
| 2026-04-21 06:56 | 8.97713 | 38.79313 | 7616 ft | 22 kts | 253° |
| 2026-04-21 06:56 | 8.97671 | 38.79169 | 7618 ft | 21 kts | 253° |
| 2026-04-21 06:56 | 8.97630 | 38.79028 | 7620 ft | 20 kts | 253° |
| 2026-04-21 06:57 | 8.97590 | 38.78893 | 7621 ft | 20 kts | 253° |
| 2026-04-21 06:57 | 8.97550 | 38.78761 | 7623 ft | 19 kts | 253° |
| 2026-04-21 06:57 | 8.97511 | 38.78635 | 7623 ft | 19 kts | 253° |
| 2026-04-21 06:57 | 8.97474 | 38.78512 | 7629 ft | 18 kts | 253° |
| 2026-04-21 06:58 | 8.97438 | 38.78393 | 7626 ft | 17 kts | 253° |
| 2026-04-21 06:58 | 8.97386 | 38.78288 | 7627 ft | 17 kts | 216° |
| 2026-04-21 06:58 | 8.97290 | 38.78327 | 7626 ft | 16 kts | 136° |
| 2026-04-21 06:58 | 8.97246 | 38.78407 | 7624 ft | 12 kts | 77° |
| 2026-04-21 06:59 | 8.97270 | 38.78507 | 7624 ft | 29 kts | 75° |
| 2026-04-21 06:59 | 8.97395 | 38.78930 | 7621 ft | 95 kts | 73° |
| 2026-04-21 06:59 | 8.97645 | 38.79768 | 7614 ft | 152 kts | 74° |
| 2026-04-21 06:59 | 8.97993 | 38.80946 | 7680 ft | 193 kts | 73° |
| 2026-04-21 07:00 | 8.98395 | 38.82317 | 8012 ft | 218 kts | 74° |
| 2026-04-21 07:00 | 8.98854 | 38.83860 | 8383 ft | 237 kts | 73° |
| 2026-04-21 07:00 | 8.99322 | 38.85543 | 8670 ft | 253 kts | 76° |
| 2026-04-21 07:00 | 8.99750 | 38.87239 | 9499 ft | 243 kts | 76° |
| 2026-04-21 07:01 | 9.00183 | 38.88914 | 9992 ft | 251 kts | 75° |
| 2026-04-21 07:01 | 9.00647 | 38.90630 | 10577 ft | 253 kts | 75° |
| 2026-04-21 07:01 | 8.99886 | 38.93944 | 11792 ft | 257 kts | 134° |
| 2026-04-21 07:02 | 8.98388 | 38.94930 | 12394 ft | 262 kts | 160° |
| 2026-04-21 07:02 | 8.96570 | 38.95124 | 12953 ft | 269 kts | 188° |
| 2026-04-21 07:02 | 8.94823 | 38.94436 | 13462 ft | 276 kts | 217° |
| 2026-04-21 07:02 | 8.93534 | 38.92992 | 14007 ft | 280 kts | 240° |
| 2026-04-21 07:03 | 8.92710 | 38.91200 | 14584 ft | 282 kts | 248° |
| 2026-04-21 07:03 | 8.91987 | 38.89347 | 15167 ft | 285 kts | 249° |
| 2026-04-21 07:03 | 8.91241 | 38.87488 | 15722 ft | 289 kts | 248° |
| 2026-04-21 07:03 | 8.90422 | 38.85610 | 16321 ft | 291 kts | 238° |
| 2026-04-21 07:04 | 8.89046 | 38.84115 | 16819 ft | 295 kts | 212° |
| 2026-04-21 07:04 | 8.87137 | 38.83242 | 17001 ft | 310 kts | 197° |
| 2026-04-21 07:04 | 8.85011 | 38.82588 | 17151 ft | 329 kts | 194° |
| 2026-04-21 07:04 | 8.82756 | 38.81912 | 17285 ft | 347 kts | 196° |
| 2026-04-21 07:05 | 8.80399 | 38.81128 | 17427 ft | 365 kts | 198° |
| 2026-04-21 07:05 | 8.77947 | 38.80263 | 17538 ft | 382 kts | 198° |
| 2026-04-21 07:05 | 8.75391 | 38.79360 | 17629 ft | 397 kts | 198° |
| 2026-04-21 07:05 | 8.72747 | 38.78441 | 17922 ft | 405 kts | 198° |
| 2026-04-21 07:06 | 8.70065 | 38.77525 | 18394 ft | 408 kts | 197° |
| 2026-04-21 07:06 | 8.67371 | 38.76611 | 18908 ft | 409 kts | 197° |
| 2026-04-21 07:06 | 8.64647 | 38.75750 | 19366 ft | 412 kts | 193° |
| 2026-04-21 07:06 | 8.61812 | 38.75391 | 19808 ft | 411 kts | 178° |
| 2026-04-21 07:07 | 8.58954 | 38.75576 | 20258 ft | 413 kts | 173° |
| 2026-04-21 07:07 | 8.56090 | 38.75902 | 20670 ft | 415 kts | 172° |
| 2026-04-21 07:07 | 8.53213 | 38.76242 | 21084 ft | 418 kts | 172° |
| 2026-04-21 07:07 | 8.50305 | 38.76543 | 21466 ft | 421 kts | 173° |
| 2026-04-21 07:08 | 8.47384 | 38.76799 | 21859 ft | 423 kts | 174° |
| 2026-04-21 07:08 | 8.44439 | 38.77026 | 22238 ft | 425 kts | 174° |
| 2026-04-21 07:08 | 8.41480 | 38.77236 | 22598 ft | 427 kts | 175° |
| 2026-04-21 07:08 | 8.38504 | 38.77439 | 22934 ft | 430 kts | 175° |
| 2026-04-21 07:09 | 8.35511 | 38.77641 | 23280 ft | 432 kts | 175° |
| 2026-04-21 07:09 | 8.32501 | 38.77843 | 23616 ft | 434 kts | 175° |
| 2026-04-21 07:09 | 8.29482 | 38.78047 | 23943 ft | 436 kts | 175° |
| 2026-04-21 07:09 | 8.26449 | 38.78253 | 24258 ft | 438 kts | 175° |
| 2026-04-21 07:10 | 8.23402 | 38.78462 | 24560 ft | 440 kts | 175° |
| 2026-04-21 07:10 | 8.20342 | 38.78672 | 24860 ft | 442 kts | 175° |
| 2026-04-21 07:10 | 8.17268 | 38.78883 | 25152 ft | 444 kts | 175° |
| 2026-04-21 07:10 | 8.14187 | 38.79095 | 25444 ft | 445 kts | 175° |
| 2026-04-21 07:11 | 8.11085 | 38.79307 | 25728 ft | 447 kts | 175° |
| 2026-04-21 07:11 | 8.07976 | 38.79520 | 26002 ft | 449 kts | 175° |
| 2026-04-21 07:11 | 8.04857 | 38.79732 | 26261 ft | 450 kts | 175° |
| 2026-04-21 07:11 | 8.01723 | 38.79946 | 26515 ft | 452 kts | 175° |
| 2026-04-21 07:12 | 7.98576 | 38.80162 | 26773 ft | 454 kts | 175° |
| 2026-04-21 07:12 | 7.95426 | 38.80378 | 27046 ft | 455 kts | 175° |
| 2026-04-21 07:12 | 7.92268 | 38.80594 | 27306 ft | 456 kts | 175° |
| 2026-04-21 07:12 | 7.89096 | 38.80812 | 27535 ft | 457 kts | 175° |
| 2026-04-21 07:13 | 7.85915 | 38.81030 | 27748 ft | 459 kts | 175° |
| 2026-04-21 07:13 | 7.82722 | 38.81249 | 27958 ft | 461 kts | 175° |
| 2026-04-21 07:13 | 7.79518 | 38.81468 | 28184 ft | 462 kts | 175° |
| 2026-04-21 07:13 | 7.76310 | 38.81687 | 28407 ft | 463 kts | 175° |
| 2026-04-21 07:14 | 7.73087 | 38.81907 | 28619 ft | 465 kts | 175° |
| 2026-04-21 07:14 | 7.69859 | 38.82127 | 28814 ft | 466 kts | 175° |
| 2026-04-21 07:14 | 7.66616 | 38.82349 | 29015 ft | 467 kts | 175° |
| 2026-04-21 07:14 | 7.63370 | 38.82572 | 29207 ft | 469 kts | 175° |
| 2026-04-21 07:15 | 7.60113 | 38.82794 | 29412 ft | 470 kts | 175° |
| 2026-04-21 07:15 | 7.56847 | 38.83017 | 29604 ft | 471 kts | 175° |
| 2026-04-21 07:15 | 7.53576 | 38.83240 | 29801 ft | 472 kts | 175° |
| 2026-04-21 07:15 | 7.50294 | 38.83465 | 29988 ft | 473 kts | 176° |
| 2026-04-21 07:16 | 7.47009 | 38.83689 | 30169 ft | 474 kts | 175° |
| 2026-04-21 07:16 | 7.43714 | 38.83923 | 30337 ft | 476 kts | 174° |
| 2026-04-21 07:16 | 7.40428 | 38.84364 | 30497 ft | 477 kts | 169° |
| 2026-04-21 07:16 | 7.37187 | 38.85077 | 30718 ft | 476 kts | 165° |
| 2026-04-21 07:17 | 7.34008 | 38.86011 | 30978 ft | 475 kts | 162° |
| 2026-04-21 07:17 | 7.30889 | 38.87103 | 31197 ft | 475 kts | 159° |
| 2026-04-21 07:17 | 7.27794 | 38.88281 | 31402 ft | 475 kts | 159° |
| 2026-04-21 07:17 | 7.24702 | 38.89443 | 31627 ft | 475 kts | 160° |
| 2026-04-21 07:18 | 7.21586 | 38.90553 | 31844 ft | 475 kts | 161° |
| 2026-04-21 07:18 | 7.18456 | 38.91605 | 32041 ft | 475 kts | 162° |
| 2026-04-21 07:18 | 7.15308 | 38.92613 | 32232 ft | 475 kts | 162° |
| 2026-04-21 07:18 | 7.12150 | 38.93595 | 32403 ft | 476 kts | 163° |
| 2026-04-21 07:19 | 7.08981 | 38.94566 | 32617 ft | 476 kts | 163° |
| 2026-04-21 07:19 | 7.05819 | 38.95531 | 32888 ft | 474 kts | 163° |
| 2026-04-21 07:19 | 7.02665 | 38.96495 | 33127 ft | 474 kts | 163° |
| 2026-04-21 07:19 | 6.99509 | 38.97463 | 33233 ft | 476 kts | 163° |
| 2026-04-21 07:20 | 6.93162 | 38.99418 | 33232 ft | 476 kts | 163° |
| 2026-04-21 07:20 | 6.86856 | 39.01366 | 33228 ft | 472 kts | 163° |
| 2026-04-21 07:21 | 6.80572 | 39.03306 | 33285 ft | 475 kts | 163° |
| 2026-04-21 07:21 | 6.77404 | 39.04284 | 33451 ft | 476 kts | 163° |
| 2026-04-21 07:21 | 6.74243 | 39.05259 | 33695 ft | 475 kts | 163° |
| 2026-04-21 07:22 | 6.71088 | 39.06233 | 33981 ft | 473 kts | 163° |
| 2026-04-21 07:22 | 6.67940 | 39.07204 | 34206 ft | 473 kts | 163° |
| 2026-04-21 07:22 | 6.64788 | 39.08175 | 34403 ft | 474 kts | 163° |
| 2026-04-21 07:22 | 6.61636 | 39.09148 | 34637 ft | 473 kts | 163° |
| 2026-04-21 07:23 | 6.58498 | 39.10116 | 34887 ft | 472 kts | 163° |
| 2026-04-21 07:23 | 6.55360 | 39.11083 | 35120 ft | 471 kts | 162° |
| 2026-04-21 07:23 | 6.49071 | 39.13021 | 35186 ft | 475 kts | 162° |
| 2026-04-21 07:24 | 6.42759 | 39.14966 | 35185 ft | 472 kts | 162° |
| 2026-04-21 07:24 | 6.36489 | 39.16898 | 35171 ft | 471 kts | 162° |
| 2026-04-21 07:25 | 6.30905 | 39.18618 | 35165 ft | 469 kts | 162° |
| 2026-04-21 07:25 | 6.24675 | 39.20536 | 35159 ft | 468 kts | 162° |
| 2026-04-21 07:26 | 6.18456 | 39.22451 | 35158 ft | 467 kts | 162° |
| 2026-04-21 07:26 | 6.12249 | 39.24362 | 35151 ft | 467 kts | 162° |
| 2026-04-21 07:27 | 6.06025 | 39.26277 | 35138 ft | 468 kts | 162° |
| 2026-04-21 07:27 | 5.99791 | 39.28195 | 35135 ft | 470 kts | 162° |
| 2026-04-21 07:28 | 5.93531 | 39.30120 | 35133 ft | 471 kts | 162° |
| 2026-04-21 07:28 | 5.87258 | 39.32049 | 35127 ft | 472 kts | 162° |
| 2026-04-21 07:29 | 5.80964 | 39.33986 | 35118 ft | 474 kts | 162° |
| 2026-04-21 07:29 | 5.74658 | 39.35923 | 35107 ft | 474 kts | 162° |
| 2026-04-21 07:30 | 5.68355 | 39.37860 | 35099 ft | 474 kts | 162° |
| 2026-04-21 07:30 | 5.62024 | 39.39670 | 35084 ft | 473 kts | 166° |
| 2026-04-21 07:31 | 5.55563 | 39.40903 | 35088 ft | 472 kts | 171° |
| 2026-04-21 07:31 | 5.49052 | 39.41748 | 35074 ft | 471 kts | 172° |
| 2026-04-21 07:32 | 5.42563 | 39.42652 | 35077 ft | 471 kts | 171° |
| 2026-04-21 07:32 | 5.36106 | 39.43687 | 35072 ft | 470 kts | 170° |
| 2026-04-21 07:33 | 5.29664 | 39.44778 | 35065 ft | 469 kts | 170° |
| 2026-04-21 07:33 | 5.23236 | 39.45870 | 35052 ft | 469 kts | 170° |
| 2026-04-21 07:34 | 5.16801 | 39.46956 | 35057 ft | 469 kts | 170° |
| 2026-04-21 07:34 | 5.11451 | 39.47854 | 35057 ft | 469 kts | 170° |
| 2026-04-21 07:35 | 5.03967 | 39.49111 | 35048 ft | 470 kts | 170° |
| 2026-04-21 07:35 | 4.98563 | 39.50019 | 35043 ft | 470 kts | 170° |
| 2026-04-21 07:36 | 4.92111 | 39.51103 | 35040 ft | 470 kts | 170° |
| 2026-04-21 07:36 | 4.85657 | 39.52184 | 35035 ft | 470 kts | 170° |
| 2026-04-21 07:37 | 4.79199 | 39.53269 | 35028 ft | 471 kts | 170° |
| 2026-04-21 07:37 | 4.72731 | 39.54356 | 35027 ft | 471 kts | 170° |
| 2026-04-21 07:38 | 4.66263 | 39.55441 | 35022 ft | 471 kts | 170° |
| 2026-04-21 07:38 | 4.59792 | 39.56525 | 35018 ft | 471 kts | 170° |
| 2026-04-21 07:39 | 4.53331 | 39.57609 | 35012 ft | 471 kts | 170° |
| 2026-04-21 07:39 | 4.46865 | 39.58695 | 35013 ft | 471 kts | 170° |
| 2026-04-21 07:40 | 4.40412 | 39.59777 | 35006 ft | 470 kts | 170° |
| 2026-04-21 07:40 | 4.33965 | 39.60859 | 34993 ft | 469 kts | 170° |
| 2026-04-21 07:41 | 4.27527 | 39.61938 | 34996 ft | 469 kts | 170° |
| 2026-04-21 07:41 | 4.21144 | 39.63007 | 34999 ft | 468 kts | 170° |
| 2026-04-21 07:42 | 4.14681 | 39.64089 | 34989 ft | 467 kts | 170° |
| 2026-04-21 07:42 | 4.08267 | 39.65165 | 34996 ft | 467 kts | 170° |
| 2026-04-21 07:43 | 4.01849 | 39.66239 | 34981 ft | 468 kts | 170° |
| 2026-04-21 07:43 | 3.95445 | 39.67368 | 34982 ft | 467 kts | 169° |
| 2026-04-21 07:44 | 3.89057 | 39.68594 | 34984 ft | 467 kts | 168° |
| 2026-04-21 07:44 | 3.82675 | 39.69825 | 34976 ft | 467 kts | 169° |
| 2026-04-21 07:45 | 3.76284 | 39.71043 | 34972 ft | 467 kts | 169° |
| 2026-04-21 07:45 | 3.69939 | 39.72243 | 34973 ft | 467 kts | 169° |
| 2026-04-21 07:46 | 3.63542 | 39.73452 | 34976 ft | 468 kts | 169° |
| 2026-04-21 07:46 | 3.57148 | 39.74660 | 34975 ft | 468 kts | 169° |
| 2026-04-21 07:47 | 3.50741 | 39.75871 | 34970 ft | 469 kts | 169° |
| 2026-04-21 07:47 | 3.44327 | 39.77083 | 34974 ft | 469 kts | 169° |
| 2026-04-21 07:48 | 3.37910 | 39.78295 | 34969 ft | 470 kts | 169° |
| 2026-04-21 07:48 | 3.31485 | 39.79509 | 34960 ft | 470 kts | 169° |
| 2026-04-21 07:49 | 3.25065 | 39.80723 | 34967 ft | 470 kts | 169° |
| 2026-04-21 07:49 | 3.18648 | 39.81935 | 34956 ft | 469 kts | 168° |
| 2026-04-21 07:50 | 3.12238 | 39.83145 | 34965 ft | 469 kts | 168° |
| 2026-04-21 07:50 | 3.05833 | 39.84355 | 34943 ft | 469 kts | 168° |
| 2026-04-21 07:51 | 2.99413 | 39.85571 | 34945 ft | 471 kts | 168° |
| 2026-04-21 07:51 | 2.92943 | 39.86790 | 34928 ft | 472 kts | 168° |
| 2026-04-21 07:52 | 2.86502 | 39.88004 | 34929 ft | 470 kts | 168° |
| 2026-04-21 07:52 | 2.80085 | 39.89216 | 34933 ft | 468 kts | 168° |
| 2026-04-21 07:53 | 2.73702 | 39.90422 | 34935 ft | 466 kts | 168° |
| 2026-04-21 07:53 | 2.67340 | 39.91623 | 34934 ft | 465 kts | 168° |
| 2026-04-21 07:54 | 2.60990 | 39.92822 | 34934 ft | 464 kts | 168° |
| 2026-04-21 07:54 | 2.54644 | 39.94009 | 34946 ft | 464 kts | 169° |
| 2026-04-21 07:55 | 2.48294 | 39.95137 | 34939 ft | 464 kts | 169° |
| 2026-04-21 07:55 | 2.41934 | 39.96254 | 34937 ft | 465 kts | 169° |
| 2026-04-21 07:56 | 2.35558 | 39.97381 | 34934 ft | 466 kts | 169° |
| 2026-04-21 07:56 | 2.29163 | 39.98518 | 34933 ft | 467 kts | 169° |
| 2026-04-21 07:57 | 2.22761 | 39.99660 | 34937 ft | 468 kts | 169° |
| 2026-04-21 07:57 | 2.16346 | 40.00799 | 34934 ft | 469 kts | 169° |
| 2026-04-21 07:58 | 2.09921 | 40.01939 | 34944 ft | 469 kts | 169° |
| 2026-04-21 07:58 | 2.03491 | 40.03083 | 34935 ft | 469 kts | 169° |
| 2026-04-21 07:59 | 1.97059 | 40.04227 | 34934 ft | 470 kts | 169° |
| 2026-04-21 07:59 | 1.90621 | 40.05370 | 34933 ft | 470 kts | 169° |
| 2026-04-21 08:00 | 1.84182 | 40.06515 | 34933 ft | 470 kts | 169° |
| 2026-04-21 08:00 | 1.77750 | 40.07657 | 34932 ft | 469 kts | 169° |
| 2026-04-21 08:01 | 1.71266 | 40.08066 | 34934 ft | 470 kts | 187° |
| 2026-04-21 08:02 | 1.61573 | 40.06688 | 34932 ft | 468 kts | 184° |
| 2026-04-21 08:02 | 1.55077 | 40.06293 | 34932 ft | 467 kts | 182° |
| 2026-04-21 08:03 | 1.48589 | 40.05860 | 34935 ft | 468 kts | 184° |
| 2026-04-21 08:03 | 1.42100 | 40.05312 | 34938 ft | 468 kts | 184° |
| 2026-04-21 08:04 | 1.35607 | 40.04723 | 34935 ft | 469 kts | 184° |
| 2026-04-21 08:04 | 1.29107 | 40.04136 | 34937 ft | 470 kts | 184° |
| 2026-04-21 08:05 | 1.22589 | 40.03554 | 34934 ft | 470 kts | 184° |
| 2026-04-21 08:05 | 1.16069 | 40.02973 | 34937 ft | 471 kts | 184° |
| 2026-04-21 08:06 | 1.09533 | 40.02391 | 34939 ft | 472 kts | 184° |
| 2026-04-21 08:06 | 1.02989 | 40.01807 | 34934 ft | 472 kts | 184° |
| 2026-04-21 08:07 | 0.96442 | 40.01224 | 34937 ft | 472 kts | 184° |
| 2026-04-21 08:07 | 0.89903 | 40.00640 | 34933 ft | 472 kts | 184° |
| 2026-04-21 08:08 | 0.83367 | 40.00053 | 34933 ft | 471 kts | 184° |
| 2026-04-21 08:08 | 0.76833 | 39.99467 | 34944 ft | 471 kts | 184° |
| 2026-04-21 08:09 | 0.70317 | 39.98884 | 34931 ft | 470 kts | 184° |
| 2026-04-21 08:09 | 0.63814 | 39.98301 | 34941 ft | 469 kts | 184° |
| 2026-04-21 08:10 | 0.57320 | 39.97719 | 34937 ft | 468 kts | 184° |
| 2026-04-21 08:10 | 0.50838 | 39.97138 | 34941 ft | 467 kts | 184° |
| 2026-04-21 08:11 | 0.44368 | 39.96558 | 34950 ft | 467 kts | 184° |
| 2026-04-21 08:11 | 0.37896 | 39.95977 | 34958 ft | 467 kts | 184° |
| 2026-04-21 08:12 | 0.31420 | 39.95399 | 34951 ft | 467 kts | 184° |
| 2026-04-21 08:12 | 0.24946 | 39.94818 | 34946 ft | 467 kts | 184° |
| 2026-04-21 08:13 | 0.18460 | 39.94238 | 34946 ft | 468 kts | 184° |
| 2026-04-21 08:13 | 0.11977 | 39.93657 | 34949 ft | 468 kts | 185° |
| 2026-04-21 08:14 | 0.05487 | 39.93076 | 34946 ft | 469 kts | 184° |
| 2026-04-21 08:14 | -0.01010 | 39.92494 | 34943 ft | 469 kts | 184° |
| 2026-04-21 08:15 | -0.07508 | 39.91911 | 34943 ft | 469 kts | 184° |
| 2026-04-21 08:15 | -0.14006 | 39.91329 | 34942 ft | 469 kts | 184° |
| 2026-04-21 08:16 | -0.20511 | 39.90747 | 34944 ft | 469 kts | 184° |
| 2026-04-21 08:16 | -0.27010 | 39.90166 | 34944 ft | 469 kts | 185° |
| 2026-04-21 08:17 | -0.32458 | 39.89678 | 34942 ft | 469 kts | 184° |
| 2026-04-21 08:17 | -0.38973 | 39.89201 | 34947 ft | 469 kts | 183° |
| 2026-04-21 08:18 | -0.45449 | 39.88804 | 34946 ft | 469 kts | 183° |
| 2026-04-21 08:18 | -0.51962 | 39.88399 | 34941 ft | 469 kts | 183° |
| 2026-04-21 08:19 | -0.58479 | 39.87977 | 34945 ft | 469 kts | 183° |
| 2026-04-21 08:19 | -0.64995 | 39.87547 | 34944 ft | 469 kts | 183° |
| 2026-04-21 08:20 | -0.71510 | 39.87118 | 34945 ft | 469 kts | 183° |
| 2026-04-21 08:20 | -0.78027 | 39.86689 | 34944 ft | 469 kts | 183° |
| 2026-04-21 08:21 | -0.84540 | 39.86262 | 34943 ft | 469 kts | 183° |
| 2026-04-21 08:21 | -0.91053 | 39.85834 | 34947 ft | 469 kts | 183° |
| 2026-04-21 08:22 | -0.97569 | 39.85406 | 34946 ft | 469 kts | 184° |
| 2026-04-21 08:22 | -1.04083 | 39.84979 | 34951 ft | 469 kts | 184° |
| 2026-04-21 08:23 | -1.10593 | 39.84551 | 34954 ft | 469 kts | 184° |
| 2026-04-21 08:23 | -1.17107 | 39.84123 | 34945 ft | 469 kts | 184° |
| 2026-04-21 08:24 | -1.23626 | 39.83695 | 34943 ft | 470 kts | 184° |
| 2026-04-21 08:24 | -1.30151 | 39.83266 | 34942 ft | 470 kts | 184° |
| 2026-04-21 08:25 | -1.36677 | 39.82836 | 34942 ft | 469 kts | 184° |
| 2026-04-21 08:25 | -1.43195 | 39.82407 | 34942 ft | 469 kts | 184° |
| 2026-04-21 08:26 | -1.49714 | 39.81980 | 34947 ft | 470 kts | 184° |
| 2026-04-21 08:26 | -1.56239 | 39.81551 | 34945 ft | 470 kts | 184° |
| 2026-04-21 08:27 | -1.62766 | 39.81122 | 34956 ft | 470 kts | 184° |
| 2026-04-21 08:27 | -1.69292 | 39.80693 | 34957 ft | 470 kts | 184° |
| 2026-04-21 08:28 | -1.75821 | 39.80263 | 34953 ft | 470 kts | 184° |
| 2026-04-21 08:28 | -1.82358 | 39.79824 | 34954 ft | 471 kts | 184° |
| 2026-04-21 08:29 | -1.88935 | 39.79359 | 34272 ft | 479 kts | 184° |
| 2026-04-21 08:29 | -1.92250 | 39.79123 | 33647 ft | 477 kts | 184° |
| 2026-04-21 08:29 | -1.95559 | 39.78887 | 32942 ft | 477 kts | 184° |
| 2026-04-21 08:29 | -1.98872 | 39.78651 | 32285 ft | 477 kts | 184° |
| 2026-04-21 08:30 | -2.02164 | 39.78417 | 31808 ft | 472 kts | 184° |
| 2026-04-21 08:30 | -2.05428 | 39.78188 | 31295 ft | 468 kts | 183° |
| 2026-04-21 08:30 | -2.08665 | 39.77961 | 30806 ft | 464 kts | 183° |
| 2026-04-21 08:30 | -2.11871 | 39.77736 | 30306 ft | 460 kts | 183° |
| 2026-04-21 08:31 | -2.15050 | 39.77512 | 29817 ft | 456 kts | 183° |
| 2026-04-21 08:31 | -2.18198 | 39.77290 | 29327 ft | 452 kts | 183° |
| 2026-04-21 08:31 | -2.21321 | 39.77071 | 28827 ft | 448 kts | 183° |
| 2026-04-21 08:31 | -2.24416 | 39.76853 | 28328 ft | 444 kts | 183° |
| 2026-04-21 08:32 | -2.27491 | 39.76637 | 27832 ft | 440 kts | 183° |
| 2026-04-21 08:32 | -2.30527 | 39.76425 | 27338 ft | 436 kts | 183° |
| 2026-04-21 08:32 | -2.33545 | 39.76212 | 26848 ft | 433 kts | 183° |
| 2026-04-21 08:32 | -2.36533 | 39.76000 | 26359 ft | 429 kts | 183° |
| 2026-04-21 08:33 | -2.39501 | 39.75790 | 25874 ft | 426 kts | 183° |
| 2026-04-21 08:33 | -2.42449 | 39.75583 | 25388 ft | 423 kts | 183° |
| 2026-04-21 08:33 | -2.45371 | 39.75378 | 24907 ft | 420 kts | 183° |
| 2026-04-21 08:33 | -2.48275 | 39.75174 | 24426 ft | 417 kts | 183° |
| 2026-04-21 08:34 | -2.51153 | 39.74972 | 23950 ft | 414 kts | 183° |
| 2026-04-21 08:34 | -2.54021 | 39.74770 | 23475 ft | 411 kts | 183° |
| 2026-04-21 08:34 | -2.56861 | 39.74571 | 23005 ft | 407 kts | 183° |
| 2026-04-21 08:34 | -2.59668 | 39.74375 | 22528 ft | 403 kts | 183° |
| 2026-04-21 08:35 | -2.62458 | 39.74196 | 22081 ft | 400 kts | 180° |
| 2026-04-21 08:35 | -2.65227 | 39.74260 | 21622 ft | 395 kts | 174° |
| 2026-04-21 08:35 | -2.67954 | 39.74515 | 21147 ft | 392 kts | 172° |
| 2026-04-21 08:35 | -2.70652 | 39.74830 | 20697 ft | 389 kts | 172° |
| 2026-04-21 08:36 | -2.73330 | 39.75147 | 20251 ft | 386 kts | 172° |
| 2026-04-21 08:36 | -2.75988 | 39.75445 | 19802 ft | 383 kts | 172° |
| 2026-04-21 08:36 | -2.78629 | 39.75723 | 19359 ft | 380 kts | 173° |
| 2026-04-21 08:36 | -2.81252 | 39.75985 | 18919 ft | 377 kts | 173° |
| 2026-04-21 08:37 | -2.83851 | 39.76235 | 18479 ft | 374 kts | 173° |
| 2026-04-21 08:37 | -2.86437 | 39.76480 | 18044 ft | 371 kts | 173° |
| 2026-04-21 08:37 | -2.88997 | 39.76719 | 17615 ft | 368 kts | 173° |
| 2026-04-21 08:37 | -2.91540 | 39.76957 | 17188 ft | 366 kts | 173° |
| 2026-04-21 08:38 | -2.94068 | 39.77193 | 16757 ft | 363 kts | 173° |
| 2026-04-21 08:38 | -2.96575 | 39.77428 | 16332 ft | 361 kts | 173° |
| 2026-04-21 08:38 | -2.99065 | 39.77661 | 15907 ft | 358 kts | 173° |
| 2026-04-21 08:38 | -3.01541 | 39.77893 | 15483 ft | 356 kts | 173° |
| 2026-04-21 08:39 | -3.04001 | 39.78123 | 15064 ft | 354 kts | 173° |
| 2026-04-21 08:39 | -3.06441 | 39.78352 | 14647 ft | 351 kts | 173° |
| 2026-04-21 08:39 | -3.08869 | 39.78579 | 14229 ft | 349 kts | 172° |
| 2026-04-21 08:39 | -3.11277 | 39.78804 | 13817 ft | 347 kts | 172° |
| 2026-04-21 08:40 | -3.13674 | 39.79029 | 13400 ft | 345 kts | 172° |
| 2026-04-21 08:40 | -3.16058 | 39.79252 | 12991 ft | 343 kts | 172° |
| 2026-04-21 08:40 | -3.18427 | 39.79474 | 12578 ft | 341 kts | 172° |
| 2026-04-21 08:40 | -3.20783 | 39.79694 | 12170 ft | 339 kts | 172° |
| 2026-04-21 08:41 | -3.23124 | 39.79914 | 11762 ft | 337 kts | 172° |
| 2026-04-21 08:41 | -3.25447 | 39.80132 | 11357 ft | 335 kts | 172° |
| 2026-04-21 08:41 | -3.27757 | 39.80350 | 10954 ft | 333 kts | 172° |
| 2026-04-21 08:41 | -3.30053 | 39.80566 | 10589 ft | 329 kts | 172° |
| 2026-04-21 08:42 | -3.32296 | 39.80775 | 10458 ft | 318 kts | 172° |
| 2026-04-21 08:42 | -3.34469 | 39.80978 | 10307 ft | 310 kts | 172° |
| 2026-04-21 08:42 | -3.36584 | 39.81176 | 10176 ft | 300 kts | 172° |
| 2026-04-21 08:42 | -3.38631 | 39.81368 | 10044 ft | 291 kts | 172° |
| 2026-04-21 08:43 | -3.40624 | 39.81555 | 9880 ft | 284 kts | 172° |
| 2026-04-21 08:43 | -3.42591 | 39.81740 | 9592 ft | 283 kts | 172° |
| 2026-04-21 08:43 | -3.44545 | 39.81923 | 9307 ft | 281 kts | 173° |
| 2026-04-21 08:43 | -3.46488 | 39.82105 | 9022 ft | 280 kts | 173° |
| 2026-04-21 08:44 | -3.48428 | 39.82124 | 8725 ft | 280 kts | 186° |
| 2026-04-21 08:44 | -3.50331 | 39.81739 | 8455 ft | 279 kts | 192° |
| 2026-04-21 08:44 | -3.52202 | 39.81247 | 8171 ft | 278 kts | 193° |
| 2026-04-21 08:44 | -3.54069 | 39.80749 | 7873 ft | 277 kts | 192° |
| 2026-04-21 08:45 | -3.55932 | 39.80266 | 7574 ft | 276 kts | 192° |
| 2026-04-21 08:45 | -3.57787 | 39.79802 | 7285 ft | 274 kts | 192° |
| 2026-04-21 08:45 | -3.59631 | 39.79351 | 6993 ft | 272 kts | 191° |
| 2026-04-21 08:45 | -3.61465 | 39.78907 | 6705 ft | 271 kts | 191° |
| 2026-04-21 08:46 | -3.63293 | 39.78469 | 6412 ft | 269 kts | 191° |
| 2026-04-21 08:46 | -3.65110 | 39.78036 | 6139 ft | 269 kts | 191° |
| 2026-04-21 08:46 | -3.66928 | 39.77602 | 5863 ft | 268 kts | 191° |
| 2026-04-21 08:46 | -3.68737 | 39.77173 | 5582 ft | 267 kts | 191° |
| 2026-04-21 08:47 | -3.70536 | 39.76745 | 5299 ft | 265 kts | 191° |
| 2026-04-21 08:47 | -3.72329 | 39.76321 | 5033 ft | 266 kts | 191° |
| 2026-04-21 08:47 | -3.74133 | 39.75861 | 4767 ft | 269 kts | 197° |
| 2026-04-21 08:47 | -3.75798 | 39.75137 | 4785 ft | 254 kts | 205° |
| 2026-04-21 08:48 | -3.77290 | 39.74284 | 4668 ft | 241 kts | 209° |
| 2026-04-21 08:48 | -3.78672 | 39.73431 | 4559 ft | 226 kts | 208° |
| 2026-04-21 08:48 | -3.79977 | 39.72663 | 4462 ft | 209 kts | 207° |
| 2026-04-21 08:48 | -3.81184 | 39.71975 | 4318 ft | 191 kts | 206° |
| 2026-04-21 08:49 | -3.82310 | 39.71341 | 4064 ft | 183 kts | 206° |
| 2026-04-21 08:49 | -3.83430 | 39.70712 | 4066 ft | 185 kts | 206° |
| 2026-04-21 08:49 | -3.84547 | 39.70083 | 3904 ft | 183 kts | 207° |
| 2026-04-21 08:49 | -3.85616 | 39.69480 | 3723 ft | 167 kts | 206° |
| 2026-04-21 08:50 | -3.86586 | 39.68933 | 3520 ft | 158 kts | 206° |
| 2026-04-21 08:50 | -3.87552 | 39.68390 | 3276 ft | 158 kts | 206° |
| 2026-04-21 08:50 | -3.88494 | 39.67860 | 3060 ft | 153 kts | 206° |
| 2026-04-21 08:50 | -3.89411 | 39.67344 | 2863 ft | 150 kts | 206° |
| 2026-04-21 08:51 | -3.90320 | 39.66834 | 2668 ft | 150 kts | 207° |
| 2026-04-21 08:51 | -3.91226 | 39.66324 | 2466 ft | 149 kts | 207° |
| 2026-04-21 08:51 | -3.92127 | 39.65815 | 2277 ft | 149 kts | 207° |
| 2026-04-21 08:51 | -3.93028 | 39.65307 | 2076 ft | 148 kts | 207° |
| 2026-04-21 08:52 | -3.93925 | 39.64803 | 1878 ft | 148 kts | 208° |
| 2026-04-21 08:52 | -3.94820 | 39.64287 | 1692 ft | 147 kts | 208° |
| 2026-04-21 08:52 | -3.95720 | 39.63792 | 1487 ft | 148 kts | 208° |
| 2026-04-21 08:52 | -3.96613 | 39.63289 | 1285 ft | 146 kts | 208° |
| 2026-04-21 08:53 | -3.97495 | 39.62793 | 1099 ft | 146 kts | 209° |
| 2026-04-21 08:53 | -3.98385 | 39.62293 | 901 ft | 145 kts | 209° |
| 2026-04-21 08:53 | -3.99266 | 39.61794 | 702 ft | 146 kts | 209° |
| 2026-04-21 08:53 | -4.00150 | 39.61297 | 518 ft | 146 kts | 209° |
| 2026-04-21 08:54 | -4.01039 | 39.60798 | 309 ft | 147 kts | 208° |
| 2026-04-21 08:54 | -4.01919 | 39.60347 | 206 ft | 132 kts | 207° |
| 2026-04-21 08:54 | -4.02580 | 39.60007 | 205 ft | 73 kts | 207° |
| 2026-04-21 08:54 | -4.02756 | 39.59966 | 204 ft | 20 kts | 147° |
| 2026-04-21 08:55 | -4.02854 | 39.60066 | 202 ft | 20 kts | 137° |
| 2026-04-21 08:55 | -4.02893 | 39.60091 | 202 ft | 4 kts | 178° |
| 2026-04-21 08:55 | -4.02921 | 39.60079 | 202 ft | 4 kts | 209° |
| 2026-04-21 08:55 | -4.02948 | 39.60064 | 202 ft | 4 kts | 209° |